Time;durP1;ratioP1;P1;durP2;ratioP2;P2;SDS_P1;SDS_P2;PMS_P1;PMS_P2;Temp;Humidity;BMP_temperature;BMP_pressure;BME280_temperature;BME280_humidity;BME280_pressure;Samples;Min_cycle;Max_cycle;Signal;HPM_P1;HPM_P2
2022/09/19 00:00:51;;;;;;;;;3.75;3.75;;;;;15.66;50.30;101476.50;5017377;28;45857;-59
2022/09/19 00:03:16;;;;;;;;;4.00;4.00;;;;;15.69;50.10;101476.00;5034602;28;45706;-60
2022/09/19 00:05:42;;;;;;;;;0.50;0.00;;;;;15.70;50.24;101482.41;5017128;28;45256;-59
2022/09/19 00:08:08;;;;;;;;;4.50;4.50;;;;;15.68;50.57;101474.31;5034956;28;45309;-59
2022/09/19 00:10:40;;;;;;;;;3.75;3.50;;;;;15.65;50.30;101466.50;5035060;28;45333;-59
2022/09/19 00:13:07;;;;;;;;;6.80;5.60;;;;;15.63;51.16;101467.78;5034325;28;46771;-59
2022/09/19 00:15:36;;;;;;;;;8.60;8.00;;;;;15.50;51.00;101450.25;5034608;28;45333;-59
2022/09/19 00:18:02;;;;;;;;;5.00;4.20;;;;;15.63;51.14;101474.16;5016853;28;45455;-59
2022/09/19 00:20:28;;;;;;;;;3.40;2.00;;;;;15.53;51.04;101471.91;5035070;28;45438;-59
2022/09/19 00:26:07;;;;;;;;;5.40;5.40;;;;;15.63;51.04;101473.31;4933913;28;45399;-59
2022/09/19 00:28:33;;;;;;;;;4.80;4.80;;;;;15.43;51.15;101432.88;4994292;28;45392;-59
2022/09/19 00:31:00;;;;;;;;;4.00;4.00;;;;;15.45;51.25;101448.16;4995410;28;45489;-59
2022/09/19 00:33:30;;;;;;;;;6.20;4.60;;;;;15.63;51.31;101476.09;5004761;28;46447;-59
2022/09/19 00:35:56;;;;;;;;;0.80;0.60;;;;;15.58;51.24;101474.84;5014692;28;45426;-59
2022/09/19 00:38:22;;;;;;;;;4.00;4.00;;;;;15.54;51.23;101483.84;5014388;28;45437;-59
2022/09/19 00:40:48;;;;;;;;;3.00;3.00;;;;;15.37;52.17;101469.75;5014698;28;45586;-58
2022/09/19 00:43:14;;;;;;;;;2.60;2.60;;;;;15.44;51.92;101490.72;5014013;28;45467;-58
2022/09/19 00:45:39;;;;;;;;;5.50;3.25;;;;;15.43;52.00;101490.97;4997849;28;45462;-58
2022/09/19 00:48:05;;;;;;;;;4.00;4.00;;;;;15.43;51.88;101490.97;5017949;28;45274;-58
2022/09/19 00:50:30;;;;;;;;;5.25;3.50;;;;;15.44;51.74;101485.19;5000546;28;45667;-60
2022/09/19 00:53:02;;;;;;;;;3.25;3.25;;;;;15.44;51.50;101489.88;4999810;28;45356;-59
2022/09/19 00:55:27;;;;;;;;;2.80;2.20;;;;;15.26;51.75;101472.16;5018026;28;45463;-59
2022/09/19 00:58:05;;;;;;;;;4.00;2.75;;;;;15.37;52.32;101489.94;5000144;28;45465;-59
2022/09/19 01:00:32;;;;;;;;;3.20;3.20;;;;;15.37;52.32;101489.09;5000320;28;45520;-59
2022/09/19 01:02:57;;;;;;;;;3.80;3.80;;;;;15.32;52.39;101478.72;4999463;28;47605;-60
2022/09/19 01:05:29;;;;;;;;;2.25;2.25;;;;;15.37;52.10;101489.09;5017793;28;45225;-59
2022/09/19 01:08:08;;;;;;;;;2.00;2.00;;;;;15.38;52.23;101485.25;4999925;28;45427;-59
2022/09/19 01:11:04;;;;;;;;;2.40;2.40;;;;;15.35;52.19;101494.84;5018186;28;45862;-59
2022/09/19 01:14:08;;;;;;;;;4.60;4.20;;;;;15.38;52.05;101493.56;5017307;28;45325;-59
2022/09/19 01:16:48;;;;;;;;;3.20;2.40;;;;;15.39;52.24;101495.25;4917414;28;45387;-59
2022/09/19 01:19:20;;;;;;;;;7.40;3.40;;;;;15.40;52.10;101492.25;4901825;28;45587;-59
2022/09/19 01:22:12;;;;;;;;;2.40;2.40;;;;;15.38;52.27;101486.09;4978044;28;45551;-59
2022/09/19 01:24:56;;;;;;;;;2.00;2.00;;;;;15.32;52.26;101489.78;5017137;28;46132;-60
2022/09/19 01:27:27;;;;;;;;;4.60;3.20;;;;;15.28;52.71;101480.22;5017327;28;45216;-60
2022/09/19 01:30:19;;;;;;;;;4.80;3.80;;;;;15.27;52.50;101484.06;5000041;28;45402;-59
2022/09/19 01:32:51;;;;;;;;;3.00;2.00;;;;;15.30;52.76;101484.47;5016854;28;45332;-59
2022/09/19 01:35:18;;;;;;;;;4.20;2.20;;;;;15.30;53.00;101480.84;4999710;28;46126;-58
2022/09/19 01:37:47;;;;;;;;;2.40;2.40;;;;;15.34;52.66;101495.94;4982816;28;45643;-59
2022/09/19 01:40:13;;;;;;;;;3.40;2.00;;;;;15.37;52.59;101492.69;4983499;28;45432;-58
2022/09/19 01:42:57;;;;;;;;;3.00;3.00;;;;;15.28;52.67;101486.63;4991095;28;46028;-59
2022/09/19 01:45:33;;;;;;;;;1.80;1.80;;;;;15.19;53.31;101485.19;4997134;28;45618;-58
2022/09/19 01:48:01;;;;;;;;;4.00;2.40;;;;;15.26;53.12;101499.81;4980582;28;45500;-58
2022/09/19 01:50:32;;;;;;;;;4.00;2.60;;;;;15.21;53.06;101480.28;4997180;28;45370;-58
2022/09/19 01:53:09;;;;;;;;;1.80;1.80;;;;;15.26;52.94;101498.97;4997460;28;45567;-57
2022/09/19 01:55:56;;;;;;;;;2.00;2.00;;;;;15.02;52.86;101463.63;4979320;28;46769;-58
2022/09/19 01:58:38;;;;;;;;;3.40;2.40;;;;;15.24;53.11;101501.09;4979154;28;46757;-58
2022/09/19 02:01:16;;;;;;;;;1.00;1.00;;;;;15.23;52.98;101496.66;4997107;28;45415;-58
2022/09/19 02:03:50;;;;;;;;;2.00;2.00;;;;;15.25;53.28;101498.13;4979382;28;45225;-58
2022/09/19 02:06:22;;;;;;;;;3.00;3.00;;;;;15.19;53.23;101499.00;4979546;28;46103;-59
2022/09/19 02:08:54;;;;;;;;;3.60;3.00;;;;;15.22;53.89;101498.59;4996512;28;45697;-58
2022/09/19 02:11:20;;;;;;;;;2.60;2.60;;;;;15.12;53.83;101498.22;4979388;28;45278;-58
2022/09/19 02:13:49;;;;;;;;;2.60;2.60;;;;;15.05;53.87;101498.25;4962975;28;45592;-59
2022/09/19 02:16:25;;;;;;;;;3.20;3.20;;;;;15.09;53.88;101504.22;4962673;28;46137;-59
2022/09/19 02:18:54;;;;;;;;;1.20;1.20;;;;;15.10;53.77;101498.44;4979404;28;45408;-59
2022/09/19 02:21:36;;;;;;;;;2.80;2.80;;;;;14.91;53.68;101467.13;4979390;28;45738;-59
2022/09/19 02:24:06;;;;;;;;;2.60;2.60;;;;;15.11;53.44;101493.78;4964213;28;45373;-59
2022/09/19 02:26:32;;;;;;;;;2.80;1.80;;;;;14.94;53.87;101469.41;4963991;28;45467;-59
2022/09/19 02:28:58;;;;;;;;;2.80;2.80;;;;;15.15;53.80;101508.81;4979163;28;45463;-57
2022/09/19 02:31:26;;;;;;;;;3.25;2.00;;;;;15.13;54.01;101505.44;4979513;28;45406;-56
2022/09/19 02:33:52;;;;;;;;;2.00;2.00;;;;;15.03;53.98;101517.00;5004707;28;45204;-56
2022/09/19 02:36:32;;;;;;;;;1.75;1.75;;;;;15.05;53.77;101514.84;5016479;28;46032;-57
2022/09/19 02:38:58;;;;;;;;;2.40;2.40;;;;;14.86;54.33;101475.22;4984621;28;45392;-57
2022/09/19 02:41:36;;;;;;;;;2.00;2.00;;;;;15.01;53.92;101506.16;5016577;28;45461;-56
2022/09/19 02:44:14;;;;;;;;;3.20;2.00;;;;;14.97;53.91;101493.88;4999174;28;45264;-56
2022/09/19 02:46:56;;;;;;;;;2.00;2.00;;;;;15.04;53.71;101511.25;4966847;28;48383;-57
2022/09/19 02:49:38;;;;;;;;;2.00;2.00;;;;;15.02;54.26;101505.09;5016262;28;45200;-56
2022/09/19 02:52:13;;;;;;;;;2.20;2.20;;;;;14.93;53.88;101484.31;5016311;28;45444;-57
2022/09/19 02:54:39;;;;;;;;;2.40;2.40;;;;;15.12;54.05;101504.59;4999699;28;45458;-56
2022/09/19 02:57:08;;;;;;;;;2.60;2.60;;;;;14.91;54.37;101475.41;4982073;28;45533;-57
2022/09/19 02:59:36;;;;;;;;;2.00;2.00;;;;;14.89;53.99;101486.69;4997821;28;45342;-56
2022/09/19 03:02:16;;;;;;;;;3.20;3.20;;;;;15.09;54.12;101506.97;4982348;28;45392;-57
2022/09/19 03:04:44;;;;;;;;;2.00;2.00;;;;;15.15;53.80;101511.59;4984037;28;45540;-58
2022/09/19 03:07:23;;;;;;;;;5.20;3.20;;;;;15.12;53.73;101510.13;4998269;28;46241;-58
2022/09/19 03:10:10;;;;;;;;;3.00;3.00;;;;;15.04;54.55;101518.69;4999333;28;45406;-58
2022/09/19 03:12:40;;;;;;;;;3.00;3.00;;;;;14.98;54.54;101506.59;4998030;28;45435;-57
2022/09/19 03:15:07;;;;;;;;;2.00;2.00;;;;;14.72;54.41;101480.81;4998265;28;45397;-58
2022/09/19 03:17:38;;;;;;;;;2.00;2.00;;;;;14.81;54.44;101483.31;5015782;28;46594;-55
2022/09/19 03:20:04;;;;;;;;;2.60;2.60;;;;;14.87;53.73;101485.19;4982064;28;45396;-55
2022/09/19 03:22:31;;;;;;;;;1.60;1.60;;;;;15.04;54.11;101516.78;4998242;28;45385;-58
2022/09/19 03:25:01;;;;;;;;;3.00;3.00;;;;;14.97;54.55;101515.13;5015308;28;45957;-58
2022/09/19 03:27:26;;;;;;;;;2.00;2.00;;;;;15.01;54.26;101514.44;5015251;28;46896;-58
2022/09/19 03:29:52;;;;;;;;;3.25;3.00;;;;;14.95;54.02;101501.53;5015190;28;45322;-58
2022/09/19 03:32:17;;;;;;;;;3.25;3.25;;;;;15.02;54.45;101515.31;5015825;28;45367;-57
2022/09/19 03:34:43;;;;;;;;;3.00;3.00;;;;;14.97;54.76;101512.34;5015487;28;45293;-57
2022/09/19 03:37:09;;;;;;;;;5.25;3.25;;;;;14.93;54.25;101528.53;5015376;28;46512;-57
2022/09/19 03:39:35;;;;;;;;;2.00;2.00;;;;;14.87;54.53;101526.66;5014994;28;45390;-56
2022/09/19 03:42:00;;;;;;;;;5.50;4.00;;;;;14.70;54.52;101496.75;5015235;28;45531;-56
2022/09/19 03:44:26;;;;;;;;;4.00;4.00;;;;;14.80;54.93;101512.91;5015314;28;45366;-56
2022/09/19 03:46:51;;;;;;;;;3.00;3.00;;;;;14.82;55.14;101527.31;4997581;28;46045;-58
2022/09/19 03:49:17;;;;;;;;;6.00;2.25;;;;;14.75;55.30;101524.63;5014939;28;45447;-58
2022/09/19 03:51:46;;;;;;;;;3.25;3.25;;;;;14.66;55.78;101517.59;5015187;28;45352;-58
2022/09/19 03:54:11;;;;;;;;;5.00;3.00;;;;;14.74;55.16;101536.72;5015363;28;45382;-59
2022/09/19 03:56:37;;;;;;;;;4.00;4.00;;;;;14.45;55.28;101491.13;5015342;28;45668;-57
2022/09/19 03:59:02;;;;;;;;;3.75;3.00;;;;;14.72;55.45;101543.50;5014894;28;45291;-57
2022/09/19 04:01:28;;;;;;;;;3.00;3.00;;;;;14.71;55.51;101533.50;5015086;28;45296;-57
2022/09/19 04:03:53;;;;;;;;;2.00;2.00;;;;;14.57;55.53;101511.47;5014958;28;45535;-58
2022/09/19 04:06:19;;;;;;;;;2.50;2.50;;;;;14.56;55.14;101507.03;5014838;28;45386;-57
2022/09/19 04:08:44;;;;;;;;;4.25;2.75;;;;;14.49;55.38;101498.78;5014601;28;45360;-57
2022/09/19 04:11:10;;;;;;;;;4.00;4.00;;;;;14.69;55.62;101538.41;5015101;28;45375;-57
2022/09/19 04:13:37;;;;;;;;;4.00;4.00;;;;;14.69;55.72;101544.81;5014866;28;45358;-59
2022/09/19 04:16:02;;;;;;;;;4.00;3.80;;;;;14.59;55.78;101539.75;4996912;28;46266;-57
2022/09/19 04:18:28;;;;;;;;;3.00;3.00;;;;;14.58;55.69;101542.72;4996770;28;45420;-58
2022/09/19 04:20:54;;;;;;;;;4.75;4.50;;;;;14.63;56.11;101545.69;4998298;28;45433;-58
2022/09/19 04:23:19;;;;;;;;;2.80;2.80;;;;;14.57;56.19;101530.81;4984081;28;45559;-57
2022/09/19 04:25:46;;;;;;;;;2.50;2.50;;;;;14.62;56.17;101533.78;5000126;28;46280;-57
2022/09/19 04:28:12;;;;;;;;;3.00;3.00;;;;;14.46;55.90;101518.53;5000101;28;45320;-58
2022/09/19 04:30:40;;;;;;;;;4.00;4.00;;;;;14.62;56.10;101538.47;5018295;28;45239;-57
2022/09/19 04:33:06;;;;;;;;;3.00;2.00;;;;;14.66;55.91;101545.22;4999540;28;45530;-57
2022/09/19 04:35:35;;;;;;;;;3.40;3.20;;;;;14.61;55.86;101542.28;4997809;28;46343;-57
2022/09/19 04:38:02;;;;;;;;;3.20;3.00;;;;;14.12;56.09;101467.28;4998008;28;45360;-57
2022/09/19 04:40:28;;;;;;;;;2.00;2.00;;;;;14.57;56.14;101552.91;4997965;28;45328;-57
2022/09/19 04:42:54;;;;;;;;;3.20;2.20;;;;;14.56;56.02;101542.94;4997981;28;45308;-57
2022/09/19 04:45:20;;;;;;;;;4.75;3.00;;;;;14.60;55.95;101543.34;4997745;28;46072;-57
2022/09/19 04:47:49;;;;;;;;;3.00;3.00;;;;;14.57;55.89;101546.56;4980427;28;45710;-57
2022/09/19 04:50:17;;;;;;;;;5.20;5.20;;;;;14.58;56.14;101557.38;4997903;28;45350;-57
2022/09/19 04:52:43;;;;;;;;;6.20;4.40;;;;;14.41;56.25;101532.16;4981054;28;45318;-58
2022/09/19 04:55:09;;;;;;;;;6.00;6.00;;;;;14.59;55.99;101558.22;4997902;28;46096;-57
2022/09/19 04:57:34;;;;;;;;;6.80;6.20;;;;;14.54;56.62;101560.78;4998059;28;45363;-56
2022/09/19 05:00:00;;;;;;;;;6.50;5.50;;;;;14.43;56.12;101549.38;4998152;28;45502;-58
2022/09/19 05:02:31;;;;;;;;;5.00;5.00;;;;;14.34;56.80;101547.91;4980264;28;45530;-59
2022/09/19 05:04:56;;;;;;;;;6.80;5.80;;;;;14.36;57.06;101546.63;4980157;28;47403;-58
2022/09/19 05:07:33;;;;;;;;;5.25;4.25;;;;;14.37;56.67;101555.78;4998060;28;45381;-60
2022/09/19 05:10:02;;;;;;;;;4.20;3.60;;;;;14.29;56.86;101551.31;4997979;28;45433;-59
2022/09/19 05:12:28;;;;;;;;;5.80;5.80;;;;;14.32;56.91;101558.34;4980355;28;45426;-59
2022/09/19 05:14:54;;;;;;;;;9.20;6.80;;;;;14.31;57.33;101551.13;4997343;28;45850;-58
2022/09/19 05:17:20;;;;;;;;;4.00;4.00;;;;;13.96;56.90;101510.84;4979789;28;45381;-56
2022/09/19 05:19:45;;;;;;;;;5.25;5.25;;;;;14.27;57.51;101559.00;4997582;28;45335;-57
2022/09/19 05:22:11;;;;;;;;;7.00;6.75;;;;;14.23;57.66;101563.22;4997959;28;45475;-57
2022/09/19 05:24:37;;;;;;;;;4.00;4.00;;;;;14.23;57.31;101566.00;4963146;28;47139;-57
2022/09/19 05:27:03;;;;;;;;;4.00;4.00;;;;;14.26;57.45;101570.25;4997518;28;45429;-57
2022/09/19 05:29:28;;;;;;;;;5.50;4.50;;;;;14.20;57.33;101570.03;4997743;28;45623;-57
2022/09/19 05:31:55;;;;;;;;;7.50;6.50;;;;;14.25;57.71;101568.56;4997461;28;45319;-58
2022/09/19 05:34:20;;;;;;;;;4.00;4.00;;;;;14.26;57.61;101573.00;5007941;28;45708;-56
2022/09/19 05:36:47;;;;;;;;;7.00;4.50;;;;;14.21;57.79;101571.72;5017252;28;45817;-58
2022/09/19 05:39:13;;;;;;;;;5.00;5.00;;;;;14.18;57.50;101572.16;5013010;28;45386;-58
2022/09/19 05:41:39;;;;;;;;;4.75;3.75;;;;;14.15;57.63;101580.88;4991613;28;46042;-57
2022/09/19 05:44:04;;;;;;;;;7.00;4.50;;;;;13.95;57.70;101545.91;5016718;28;45387;-58
2022/09/19 05:46:30;;;;;;;;;5.00;3.75;;;;;14.12;57.54;101577.69;4982678;28;45939;-57
2022/09/19 05:48:55;;;;;;;;;4.00;3.00;;;;;14.09;57.94;101582.59;4999278;28;45414;-55
2022/09/19 05:51:21;;;;;;;;;4.75;4.50;;;;;14.08;57.85;101572.63;5017316;28;45608;-58
2022/09/19 05:53:52;;;;;;;;;6.00;6.00;;;;;14.09;57.85;101576.25;5016746;28;46191;-57
2022/09/19 05:56:18;;;;;;;;;5.40;5.00;;;;;14.09;57.90;101581.75;5016807;28;45469;-56
2022/09/19 05:58:44;;;;;;;;;8.00;5.50;;;;;14.07;58.11;101578.34;4999480;28;45477;-60
2022/09/19 06:01:10;;;;;;;;;6.00;4.50;;;;;14.02;58.39;101573.47;4999337;28;45368;-56
2022/09/19 06:03:36;;;;;;;;;5.20;4.60;;;;;14.05;58.79;101578.56;5016572;28;46186;-56
2022/09/19 06:06:13;;;;;;;;;8.00;5.00;;;;;14.02;58.66;101583.66;4998947;28;45408;-59
2022/09/19 06:08:39;;;;;;;;;7.80;5.00;;;;;14.10;58.41;101592.56;5016935;28;45379;-57
2022/09/19 06:11:05;;;;;;;;;6.20;4.80;;;;;14.00;58.23;101560.94;5016741;28;45549;-57
2022/09/19 06:16:14;;;;;;;;;4.20;4.20;;;;;14.15;57.90;101591.91;5001186;28;45467;-57
2022/09/19 06:18:40;;;;;;;;;6.00;6.00;;;;;14.15;58.38;101602.94;5016759;28;45406;-58
2022/09/19 06:21:05;;;;;;;;;5.25;5.25;;;;;14.18;58.17;101610.81;5016664;28;45456;-57
2022/09/19 06:23:31;;;;;;;;;3.75;3.75;;;;;14.13;58.39;101601.50;5016342;28;45483;-58
2022/09/19 06:25:56;;;;;;;;;5.50;5.50;;;;;14.22;58.19;101606.56;4982140;28;45519;-56
2022/09/19 06:28:22;;;;;;;;;5.00;4.75;;;;;14.08;57.73;101599.34;5016742;28;45326;-53
2022/09/19 06:30:47;;;;;;;;;4.50;4.00;;;;;14.20;58.09;101621.66;5016745;28;45533;-58
2022/09/19 06:33:13;;;;;;;;;8.00;7.00;;;;;14.18;58.53;101621.00;5016321;28;45444;-56
2022/09/19 06:35:38;;;;;;;;;6.50;6.50;;;;;14.21;58.30;101620.59;4979079;28;45434;-59
2022/09/19 06:38:07;;;;;;;;;5.00;5.00;;;;;14.19;57.97;101619.97;4978993;28;45351;-59
2022/09/19 06:40:33;;;;;;;;;5.00;5.00;;;;;14.25;58.09;101632.06;4996888;28;45363;-59
2022/09/19 06:43:02;;;;;;;;;6.00;5.75;;;;;14.23;57.97;101635.88;4977884;28;46660;-58
2022/09/19 06:45:32;;;;;;;;;4.80;4.80;;;;;14.23;58.25;101635.03;4996346;28;45444;-57
2022/09/19 06:47:58;;;;;;;;;7.40;6.60;;;;;14.23;58.35;101641.41;4979052;28;45305;-58
2022/09/19 06:50:24;;;;;;;;;6.40;5.80;;;;;14.19;58.01;101637.38;4996466;28;45399;-58
2022/09/19 06:52:49;;;;;;;;;6.75;6.75;;;;;14.16;58.02;101629.53;4978338;28;46665;-54
2022/09/19 06:55:15;;;;;;;;;5.75;5.75;;;;;14.19;58.59;101644.81;4978382;28;45393;-59
2022/09/19 06:57:41;;;;;;;;;5.00;5.00;;;;;14.21;58.36;101640.75;4979245;28;45485;-57
2022/09/19 07:00:06;;;;;;;;;9.00;7.25;;;;;14.22;58.40;101655.41;4996352;28;45397;-57
2022/09/19 07:02:32;;;;;;;;;6.50;6.50;;;;;14.23;58.65;101641.41;4995732;28;47094;-56
2022/09/19 07:04:57;;;;;;;;;6.50;6.50;;;;;14.29;58.21;101644.38;4996010;28;45364;-56
2022/09/19 07:07:23;;;;;;;;;4.25;3.00;;;;;14.31;58.17;101648.59;4995973;28;45425;-55
2022/09/19 07:09:48;;;;;;;;;6.25;5.50;;;;;14.34;58.30;101655.59;4996701;28;45287;-55
2022/09/19 07:12:14;;;;;;;;;8.50;6.00;;;;;14.32;57.96;101655.84;4995898;28;45559;-56
2022/09/19 07:14:40;;;;;;;;;6.00;6.00;;;;;14.28;58.15;101656.47;4995747;28;45487;-56
2022/09/19 07:17:06;;;;;;;;;5.40;5.20;;;;;14.15;58.17;101641.59;4978205;28;45425;-57
2022/09/19 07:19:31;;;;;;;;;6.75;6.25;;;;;14.36;58.01;101668.13;5000299;28;45501;-57
2022/09/19 07:21:57;;;;;;;;;5.75;5.75;;;;;14.34;58.55;101661.97;5014000;28;46020;-57
2022/09/19 07:24:22;;;;;;;;;4.50;3.50;;;;;13.94;58.22;101598.53;4997635;28;45426;-56
2022/09/19 07:26:48;;;;;;;;;7.50;6.00;;;;;14.20;58.58;101641.81;5014031;28;45672;-51
2022/09/19 07:29:13;;;;;;;;;6.00;6.00;;;;;14.39;58.10;101675.16;5015454;28;45338;-55
2022/09/19 07:31:39;;;;;;;;;7.50;7.50;;;;;14.41;58.51;101672.19;5015337;28;45931;-58
2022/09/19 07:34:04;;;;;;;;;7.75;7.75;;;;;14.38;58.56;101670.69;5015192;28;45340;-56
2022/09/19 07:36:31;;;;;;;;;7.40;6.00;;;;;14.42;58.39;101680.25;5008104;28;45420;-56
2022/09/19 07:38:57;;;;;;;;;6.75;6.00;;;;;14.42;58.04;101671.97;5020361;28;46004;-54
2022/09/19 07:41:22;;;;;;;;;7.25;7.25;;;;;14.47;58.24;101674.91;5034873;28;45443;-55
2022/09/19 07:43:48;;;;;;;;;7.50;6.50;;;;;14.46;58.51;101675.16;5035158;28;45464;-54
2022/09/19 07:46:15;;;;;;;;;9.75;7.25;;;;;14.41;58.23;101674.94;5035065;28;45370;-57
2022/09/19 07:48:43;;;;;;;;;8.20;8.20;;;;;14.50;58.46;101691.06;5035146;28;45473;-56
2022/09/19 07:51:09;;;;;;;;;9.00;9.00;;;;;14.54;57.79;101687.84;4991711;28;47188;-58
2022/09/19 07:53:35;;;;;;;;;7.00;7.00;;;;;14.57;58.05;101692.97;5014037;28;45382;-56
2022/09/19 07:56:01;;;;;;;;;8.25;8.25;;;;;14.59;58.31;101696.34;5013947;28;45356;-56
2022/09/19 07:58:27;;;;;;;;;7.40;6.40;;;;;14.61;57.95;101694.22;5015306;28;45502;-57
2022/09/19 08:00:52;;;;;;;;;8.25;7.25;;;;;14.48;58.01;101659.19;4996361;28;45440;-60
2022/09/19 08:03:18;;;;;;;;;10.50;6.25;;;;;14.71;58.18;101696.53;5014663;28;45387;-55
2022/09/19 08:05:46;;;;;;;;;6.20;4.80;;;;;14.64;58.29;101702.09;4996800;28;45452;-54
2022/09/19 08:08:13;;;;;;;;;8.20;6.60;;;;;14.64;57.88;101696.56;4997407;28;45373;-53
2022/09/19 08:10:42;;;;;;;;;7.00;6.00;;;;;14.72;57.88;101701.00;4989899;28;46481;-58
2022/09/19 08:13:08;;;;;;;;;8.00;7.00;;;;;14.71;58.81;101702.91;4994361;28;45808;-58
2022/09/19 08:15:34;;;;;;;;;9.20;7.40;;;;;14.75;58.30;101700.59;5012692;28;45434;-57
2022/09/19 08:18:13;;;;;;;;;7.00;6.20;;;;;14.73;57.86;101686.13;5009133;28;45510;-59
2022/09/19 08:20:39;;;;;;;;;6.20;5.00;;;;;14.54;58.01;101654.72;4992097;28;47604;-58
2022/09/19 08:23:17;;;;;;;;;3.00;2.75;;;;;14.70;57.71;101678.25;5009503;28;45382;-59
2022/09/19 08:25:46;;;;;;;;;4.20;2.80;;;;;14.88;57.31;101708.84;5013845;28;45424;-59
2022/09/19 08:28:13;;;;;;;;;6.00;4.80;;;;;14.92;56.72;101714.78;5012969;28;45633;-59
2022/09/19 08:30:39;;;;;;;;;3.80;3.00;;;;;14.75;55.77;101682.13;5023059;28;45940;-58
2022/09/19 08:33:07;;;;;;;;;3.00;3.00;;;;;14.94;56.02;101718.19;5010188;28;45417;-59
2022/09/19 08:35:37;;;;;;;;;2.00;2.00;;;;;14.95;54.75;101721.81;5008703;28;45443;-58
2022/09/19 08:38:03;;;;;;;;;2.20;2.20;;;;;14.82;54.44;101701.44;5009696;28;45540;-58
2022/09/19 08:40:55;;;;;;;;;5.00;2.20;;;;;14.97;53.91;101722.44;5009846;28;46510;-56
2022/09/19 08:43:30;;;;;;;;;2.80;2.60;;;;;14.73;54.17;101686.13;4946673;28;46335;-59
2022/09/19 08:46:12;;;;;;;;;2.40;2.40;;;;;14.94;54.15;101709.88;4976496;28;45532;-58
2022/09/19 08:49:03;;;;;;;;;3.00;3.00;;;;;14.98;54.08;101716.69;4992781;28;45483;-59
2022/09/19 08:51:30;;;;;;;;;3.00;3.00;;;;;15.06;53.90;101720.28;4990052;28;46043;-61
2022/09/19 08:54:14;;;;;;;;;6.60;3.00;;;;;15.11;53.80;101714.94;4992528;28;45835;-60
2022/09/19 08:56:40;;;;;;;;;3.00;3.00;;;;;15.15;53.77;101716.19;4993470;28;45437;-57
2022/09/19 08:59:12;;;;;;;;;3.50;3.50;;;;;14.95;53.41;101683.97;4992754;28;45444;-60
2022/09/19 09:01:38;;;;;;;;;2.60;2.60;;;;;15.09;53.53;101704.09;4975529;28;46313;-60
2022/09/19 09:04:09;;;;;;;;;5.50;2.00;;;;;15.27;53.61;101724.66;4991816;28;45434;-60
2022/09/19 09:06:57;;;;;;;;;3.00;3.00;;;;;15.26;53.34;101723.81;4992863;28;45759;-59
2022/09/19 09:09:26;;;;;;;;;3.80;1.40;;;;;15.35;52.58;101734.63;4980408;28;45505;-59
2022/09/19 09:12:01;;;;;;;;;2.20;1.20;;;;;15.47;52.13;101734.78;4998677;28;46065;-57
2022/09/19 09:14:39;;;;;;;;;4.00;2.00;;;;;15.41;51.99;101712.47;4994192;28;46187;-60
2022/09/19 09:17:29;;;;;;;;;3.40;1.00;;;;;15.63;51.88;101728.72;4995825;28;45850;-57
2022/09/19 09:20:13;;;;;;;;;2.00;2.00;;;;;15.57;51.97;101715.78;5027964;28;45346;-59
2022/09/19 09:22:41;;;;;;;;;2.00;1.00;;;;;15.73;51.53;101739.31;4998723;28;46661;-60
2022/09/19 09:25:13;;;;;;;;;2.40;1.80;;;;;15.54;50.67;101700.47;4994683;28;45569;-58
2022/09/19 09:28:07;;;;;;;;;5.00;1.00;;;;;15.85;50.19;101733.94;5027098;28;45423;-56
2022/09/19 09:30:35;;;;;;;;;1.40;1.00;;;;;15.89;50.04;101731.56;5014940;28;45480;-59
2022/09/19 09:33:30;;;;;;;;;2.00;1.00;;;;;16.03;50.19;101732.31;5015172;28;45761;-60
2022/09/19 09:36:15;;;;;;;;;2.00;2.00;;;;;16.07;47.51;101736.34;4977605;28;45564;-59
2022/09/19 09:38:47;;;;;;;;;0.60;0.60;;;;;16.15;48.13;101732.44;5001200;28;45450;-56
2022/09/19 09:44:06;;;;;;;;;2.20;1.00;;;;;16.36;46.81;101739.53;4995367;28;45928;-56
2022/09/19 09:46:55;;;;;;;;;1.00;1.00;;;;;16.18;46.77;101707.94;5012499;28;45422;-57
2022/09/19 09:49:27;;;;;;;;;0.40;0.40;;;;;16.18;47.52;101701.53;5004872;28;45461;-55
2022/09/19 09:52:13;;;;;;;;;2.20;1.00;;;;;16.49;46.83;101735.78;4983637;28;45388;-55
2022/09/19 09:57:50;;;;;;;;;3.20;1.80;;;;;16.35;46.17;101724.84;5027563;28;45492;-57
2022/09/19 10:03:34;;;;;;;;;2.00;2.00;;;;;16.32;46.30;101727.22;5031237;28;45946;-57
2022/09/19 10:06:12;;;;;;;;;1.00;0.00;;;;;16.16;45.59;101703.69;5018818;28;46950;-56
2022/09/19 10:09:03;;;;;;;;;4.00;2.60;;;;;16.22;46.19;101717.47;4995622;28;45592;-56
2022/09/19 10:11:47;;;;;;;;;0.80;0.20;;;;;16.25;45.79;101724.50;4997400;28;45433;-55
2022/09/19 10:14:18;;;;;;;;;1.00;1.00;;;;;16.25;45.97;101732.78;5012672;28;45409;-54
2022/09/19 10:16:47;;;;;;;;;1.00;1.00;;;;;16.13;45.85;101693.91;5012274;28;45963;-56
2022/09/19 10:19:27;;;;;;;;;0.00;0.00;;;;;16.52;45.03;101707.63;5013142;28;45361;-52
2022/09/19 10:21:56;;;;;;;;;2.20;1.00;;;;;16.66;44.92;101709.16;5028256;28;45510;-54
2022/09/19 10:24:50;;;;;;;;;1.60;1.20;;;;;16.85;44.50;101717.50;5030197;28;45798;-53
2022/09/19 10:27:26;;;;;;;;;0.00;0.00;;;;;16.99;44.42;101714.56;4981906;28;47633;-54
2022/09/19 10:29:59;;;;;;;;;2.40;2.00;;;;;17.05;44.05;101692.34;4971350;28;45328;-58
2022/09/19 10:32:34;;;;;;;;;4.40;2.00;;;;;17.01;43.92;101665.25;4972627;28;46002;-55
2022/09/19 10:35:00;;;;;;;;;1.40;1.20;;;;;17.37;43.67;101694.06;4971342;28;45434;-55
2022/09/19 10:37:28;;;;;;;;;2.40;0.80;;;;;17.47;43.12;101710.16;4970921;28;45820;-57
2022/09/19 10:40:01;;;;;;;;;2.20;1.80;;;;;17.47;42.91;101697.09;4981779;28;45331;-57
2022/09/19 10:42:36;;;;;;;;;1.80;1.20;;;;;17.60;42.48;101703.56;4990674;28;45771;-56
2022/09/19 10:45:19;;;;;;;;;1.00;1.00;;;;;17.56;42.79;101666.28;4990845;28;45459;-51
2022/09/19 10:47:47;;;;;;;;;1.60;1.40;;;;;17.84;42.62;101693.38;4990524;28;46170;-53
2022/09/19 10:50:15;;;;;;;;;1.00;0.00;;;;;17.89;42.52;101701.00;4969787;28;45423;-52
2022/09/19 10:52:42;;;;;;;;;1.00;1.00;;;;;17.87;41.85;101703.16;4971307;28;45768;-51
2022/09/19 10:55:12;;;;;;;;;2.40;1.20;;;;;17.64;43.16;101690.91;4955630;28;45869;-56
2022/09/19 10:57:46;;;;;;;;;1.00;1.00;;;;;17.59;43.35;101690.75;4962980;28;45461;-59
2022/09/19 11:00:28;;;;;;;;;1.20;1.20;;;;;17.87;43.18;101703.16;4935452;28;45470;-58
2022/09/19 11:03:05;;;;;;;;;2.60;1.00;;;;;17.64;42.60;101643.72;4936081;28;45927;-57
2022/09/19 11:05:33;;;;;;;;;2.00;1.00;;;;;17.94;43.14;101690.03;4929086;28;45415;-59
2022/09/19 11:07:59;;;;;;;;;3.20;1.40;;;;;18.02;42.99;101700.78;4964872;28;46111;-60
2022/09/19 11:10:28;;;;;;;;;5.00;3.00;;;;;17.97;43.15;101706.19;4955004;28;45375;-59
2022/09/19 11:13:13;;;;;;;;;2.80;2.00;;;;;17.91;42.64;101690.50;4943950;28;45701;-56
2022/09/19 11:15:49;;;;;;;;;3.00;1.40;;;;;18.09;41.92;101694.31;4971300;28;45594;-60
2022/09/19 11:18:46;;;;;;;;;0.80;0.80;;;;;18.28;41.70;101707.00;4984984;28;47169;-61
2022/09/19 11:21:15;;;;;;;;;1.80;1.80;;;;;18.45;41.02;101697.94;4985918;28;45477;-59
2022/09/19 11:24:18;;;;;;;;;1.40;1.40;;;;;18.34;41.01;101699.63;4991364;28;45468;-59
2022/09/19 11:26:59;;;;;;;;;3.40;3.40;;;;;18.30;41.26;101692.84;4983623;28;45771;-56
2022/09/19 11:29:46;;;;;;;;;1.40;1.40;;;;;18.45;41.10;101692.38;5009267;28;45495;-56
2022/09/19 11:32:36;;;;;;;;;3.00;1.20;;;;;18.50;40.74;101699.97;5009398;28;45493;-57
2022/09/19 11:35:25;;;;;;;;;1.00;1.00;;;;;18.70;39.49;101700.44;5004584;28;45372;-60
2022/09/19 11:38:05;;;;;;;;;2.00;2.00;;;;;18.94;39.42;101702.38;4991160;28;45365;-58
2022/09/19 11:41:04;;;;;;;;;3.00;2.00;;;;;19.12;38.50;101678.25;4997607;28;45484;-60
2022/09/19 11:43:46;;;;;;;;;2.80;0.00;;;;;19.42;37.53;101705.03;5009842;28;45883;-57
2022/09/19 11:46:42;;;;;;;;;0.80;0.40;;;;;19.55;37.32;101704.72;5009790;28;45504;-61
2022/09/19 11:49:31;;;;;;;;;1.00;1.00;;;;;19.73;36.17;101697.22;5009339;28;45458;-58
2022/09/19 11:52:12;;;;;;;;;0.40;0.40;;;;;19.85;36.56;101694.41;5008981;28;46720;-54
2022/09/19 11:55:15;;;;;;;;;1.60;1.00;;;;;19.92;36.14;101693.13;5009445;28;45500;-52
2022/09/19 11:58:03;;;;;;;;;2.20;1.00;;;;;19.81;35.96;101643.06;4969839;28;45536;-60